createdAt,value
2023-03-19T00:00:30.864Z,57.08
2023-03-19T00:03:18.412Z,57.41
2023-03-19T00:05:54.925Z,57.72
2023-03-19T00:08:22.942Z,57.62
2023-03-19T00:10:51.075Z,58.20
2023-03-19T00:13:19.765Z,58.34
2023-03-19T00:15:50.459Z,58.59
2023-03-19T00:18:18.055Z,58.84
2023-03-19T00:20:45.909Z,58.95
2023-03-19T00:23:13.473Z,58.94
2023-03-19T00:25:40.866Z,58.68
2023-03-19T00:28:08.420Z,58.98
2023-03-19T00:30:36.495Z,59.18
2023-03-19T00:33:04.241Z,59.44
2023-03-19T00:35:31.599Z,58.91
2023-03-19T00:37:59.224Z,58.43
2023-03-19T00:40:27.418Z,59.27
2023-03-19T00:42:55.019Z,59.47
2023-03-19T00:45:22.258Z,59.47
2023-03-19T00:47:49.821Z,60.18
2023-03-19T00:50:17.310Z,60.29
2023-03-19T00:52:44.802Z,60.26
2023-03-19T00:55:11.989Z,60.08
2023-03-19T00:57:39.660Z,59.74
2023-03-19T01:00:08.761Z,59.52
2023-03-19T01:02:37.080Z,59.42
2023-03-19T01:05:04.580Z,59.94
2023-03-19T01:07:33.081Z,60.32
2023-03-19T01:10:00.344Z,61.23
2023-03-19T01:12:28.467Z,61.42
2023-03-19T01:14:55.763Z,61.22
2023-03-19T01:17:23.513Z,61.31
2023-03-19T01:19:50.999Z,61.45
2023-03-19T01:22:18.744Z,60.94
2023-03-19T01:24:53.041Z,60.45
2023-03-19T01:27:21.345Z,60.58
2023-03-19T01:29:50.934Z,60.74
2023-03-19T01:32:28.379Z,60.87
2023-03-19T01:35:14.004Z,60.81
2023-03-19T01:37:41.767Z,60.95
2023-03-19T01:40:13.357Z,61.96
2023-03-19T01:42:57.751Z,62.76
2023-03-19T01:45:44.966Z,63.24
2023-03-19T01:48:44.872Z,62.69
2023-03-19T01:51:17.825Z,62.41
2023-03-19T01:54:02.748Z,61.98
2023-03-19T01:56:39.804Z,61.44
2023-03-19T01:59:41.988Z,61.61
2023-03-19T02:02:29.465Z,61.96
2023-03-19T02:05:09.553Z,62.68
2023-03-19T02:07:39.899Z,62.55
2023-03-19T02:10:11.936Z,61.79
2023-03-19T02:12:39.317Z,61.87
2023-03-19T02:15:07.378Z,62.15
2023-03-19T02:17:34.989Z,62.36
2023-03-19T02:20:08.890Z,62.14
2023-03-19T02:22:40.207Z,62.91
2023-03-19T02:25:17.314Z,63.37
2023-03-19T02:27:46.922Z,63.25
2023-03-19T02:30:21.457Z,63.85
2023-03-19T02:32:49.158Z,63.56
2023-03-19T02:35:16.924Z,63.77
2023-03-19T02:37:44.271Z,64.16
2023-03-19T02:40:19.603Z,63.60
2023-03-19T02:42:46.885Z,63.65
2023-03-19T02:45:15.038Z,63.47
2023-03-19T02:47:42.279Z,63.51
2023-03-19T02:50:10.577Z,64.13
2023-03-19T02:52:37.817Z,63.21
2023-03-19T02:55:06.561Z,64.00
2023-03-19T02:57:35.482Z,64.40
2023-03-19T03:00:05.156Z,65.29
2023-03-19T03:02:32.683Z,65.68
2023-03-19T03:05:00.502Z,66.14
2023-03-19T03:07:27.710Z,65.53
2023-03-19T03:09:55.256Z,65.77
2023-03-19T03:12:22.754Z,65.32
2023-03-19T03:14:50.298Z,64.66
2023-03-19T03:17:19.295Z,65.35
2023-03-19T03:19:47.828Z,66.12
2023-03-19T03:22:15.161Z,65.96
2023-03-19T03:24:42.694Z,66.14
2023-03-19T03:27:10.088Z,66.35
2023-03-19T03:29:38.127Z,66.74
2023-03-19T03:32:07.261Z,67.43
2023-03-19T03:34:34.958Z,67.61
2023-03-19T03:37:02.154Z,66.35
2023-03-19T03:39:29.802Z,66.15
2023-03-19T03:41:57.136Z,66.25
2023-03-19T03:44:24.957Z,65.28
2023-03-19T03:46:52.545Z,64.65
2023-03-19T03:49:20.180Z,64.17
2023-03-19T03:51:47.632Z,65.47
2023-03-19T03:54:15.513Z,66.41
2023-03-19T03:56:42.714Z,67.45
2023-03-19T03:59:10.321Z,68.56
2023-03-19T04:01:37.574Z,69.41
2023-03-19T04:04:05.450Z,69.65
2023-03-19T04:06:32.864Z,70.50
2023-03-19T04:09:19.657Z,70.78
2023-03-19T04:11:49.781Z,70.79
2023-03-19T04:14:18.904Z,70.99
2023-03-19T04:16:46.757Z,70.86
2023-03-19T04:19:14.530Z,70.89
2023-03-19T04:21:41.856Z,70.94
2023-03-19T04:24:10.631Z,70.64
2023-03-19T04:26:38.465Z,70.59
2023-03-19T04:29:08.574Z,70.86
2023-03-19T04:31:36.177Z,71.37
2023-03-19T04:34:03.909Z,71.74
2023-03-19T04:36:31.322Z,71.68
2023-03-19T04:38:58.943Z,71.28
2023-03-19T04:41:27.187Z,70.19
2023-03-19T04:44:06.022Z,70.70
2023-03-19T04:46:34.243Z,71.95
2023-03-19T04:49:02.961Z,71.56
2023-03-19T04:51:30.900Z,70.83
2023-03-19T04:53:58.949Z,71.69
2023-03-19T04:56:27.818Z,71.61
2023-03-19T04:58:56.053Z,70.19
2023-03-19T05:01:23.878Z,70.05
2023-03-19T05:04:04.173Z,70.71
2023-03-19T05:06:34.190Z,69.54
2023-03-19T05:09:02.548Z,69.87
2023-03-19T05:11:29.850Z,68.87
2023-03-19T05:14:05.615Z,69.15
2023-03-19T05:17:08.708Z,69.44
2023-03-19T05:19:48.758Z,69.37
2023-03-19T05:22:17.282Z,68.33
2023-03-19T05:24:45.589Z,66.76
2023-03-19T05:27:13.413Z,66.30
2023-03-19T05:30:05.786Z,65.13
2023-03-19T05:33:00.037Z,63.15
2023-03-19T05:35:34.803Z,63.44
2023-03-19T05:38:03.980Z,62.33
2023-03-19T05:40:32.861Z,62.82
2023-03-19T05:43:05.833Z,62.84
2023-03-19T05:45:33.659Z,62.35
2023-03-19T05:48:09.157Z,62.27
2023-03-19T05:50:42.623Z,63.10
2023-03-19T05:53:20.465Z,61.81
2023-03-19T05:56:08.489Z,59.34
2023-03-19T05:58:45.801Z,58.51
2023-03-19T06:01:16.313Z,57.12
2023-03-19T06:03:44.525Z,57.00
2023-03-19T06:06:12.411Z,56.36
2023-03-19T06:08:43.698Z,55.38
2023-03-19T06:11:21.932Z,54.89
2023-03-19T06:13:58.688Z,55.19
2023-03-19T06:16:27.233Z,54.09
2023-03-19T06:18:55.281Z,55.59
2023-03-19T06:21:29.694Z,54.39
2023-03-19T06:24:00.174Z,53.58
2023-03-19T06:26:33.873Z,52.00
2023-03-19T06:29:05.009Z,51.87
2023-03-19T06:31:33.060Z,51.28
2023-03-19T06:34:03.273Z,50.43
2023-03-19T06:36:39.350Z,49.17
2023-03-19T06:39:09.391Z,47.68
2023-03-19T06:41:37.416Z,43.84
2023-03-19T06:44:17.507Z,43.83
2023-03-19T06:46:45.200Z,45.25
2023-03-19T06:49:12.458Z,45.43
2023-03-19T06:51:40.080Z,45.57
2023-03-19T06:54:07.320Z,44.96
2023-03-19T06:56:34.845Z,43.18
2023-03-19T06:59:02.360Z,44.22
2023-03-19T07:01:29.936Z,43.67
2023-03-19T07:03:57.511Z,44.60
2023-03-19T07:06:25.096Z,44.38
2023-03-19T07:08:52.336Z,43.71
2023-03-19T07:11:19.849Z,43.29
2023-03-19T07:13:47.183Z,43.19
2023-03-19T07:16:14.923Z,42.94
2023-03-19T07:18:42.171Z,39.74
2023-03-19T07:21:09.691Z,38.94
2023-03-19T07:23:36.916Z,36.26
2023-03-19T07:26:04.621Z,36.37
2023-03-19T07:28:31.875Z,36.59
2023-03-19T07:30:59.429Z,37.36
2023-03-19T07:33:26.679Z,37.07
2023-03-19T07:35:54.367Z,36.78
2023-03-19T07:38:21.772Z,36.03
2023-03-19T07:41:01.432Z,35.51
2023-03-19T07:43:29.399Z,33.99
2023-03-19T07:45:57.217Z,31.43
2023-03-19T07:48:24.597Z,30.07
2023-03-19T07:50:52.389Z,27.55
2023-03-19T07:53:20.091Z,25.24
2023-03-19T07:55:48.568Z,25.82
2023-03-19T07:58:16.918Z,25.02
2023-03-19T08:00:45.265Z,24.56
2023-03-19T08:03:12.699Z,24.06
2023-03-19T08:05:40.261Z,24.23
2023-03-19T08:08:08.026Z,23.66
2023-03-19T08:10:37.900Z,22.26
2023-03-19T08:13:05.525Z,22.48
2023-03-19T08:15:33.239Z,21.45
2023-03-19T08:18:02.111Z,22.00
2023-03-19T08:20:30.092Z,23.14
2023-03-19T08:22:58.108Z,23.82
2023-03-19T08:25:26.202Z,23.13
2023-03-19T08:27:53.448Z,22.26
2023-03-19T08:30:21.142Z,24.42
2023-03-19T08:32:49.445Z,25.86
2023-03-19T08:35:17.517Z,29.75
2023-03-19T08:37:44.896Z,30.01
2023-03-19T08:40:12.927Z,30.26
2023-03-19T08:42:44.373Z,26.51
2023-03-19T08:45:15.049Z,29.86
2023-03-19T08:47:43.649Z,26.75
2023-03-19T08:50:12.241Z,26.76
2023-03-19T08:52:39.477Z,26.88
2023-03-19T08:55:08.511Z,28.81
2023-03-19T08:57:36.744Z,26.21
2023-03-19T09:00:05.861Z,26.93
2023-03-19T09:02:33.172Z,26.09
2023-03-19T09:05:01.007Z,28.91
2023-03-19T09:07:28.270Z,30.14
2023-03-19T09:09:55.830Z,30.54
2023-03-19T09:12:23.225Z,27.81
2023-03-19T09:14:51.869Z,28.32
2023-03-19T09:17:19.115Z,26.19
2023-03-19T09:19:46.633Z,29.28
2023-03-19T09:22:13.856Z,28.54
2023-03-19T09:24:41.596Z,27.34
2023-03-19T09:27:08.904Z,32.24
2023-03-19T09:29:36.637Z,27.43
2023-03-19T09:32:04.466Z,28.27
2023-03-19T09:34:32.011Z,28.58
2023-03-19T09:36:59.304Z,28.63
2023-03-19T09:39:26.852Z,30.29
2023-03-19T09:42:28.032Z,27.35
2023-03-19T09:44:55.909Z,28.07
2023-03-19T09:47:29.644Z,27.19
2023-03-19T09:50:04.212Z,27.76
2023-03-19T09:52:54.844Z,29.43
2023-03-19T09:55:34.546Z,29.56
2023-03-19T09:58:02.740Z,28.55
2023-03-19T10:00:34.589Z,33.65
2023-03-19T10:03:14.685Z,32.68
2023-03-19T10:06:06.917Z,36.53
2023-03-19T10:08:38.684Z,37.43
2023-03-19T10:11:15.474Z,37.79
2023-03-19T10:14:29.703Z,34.82
2023-03-19T10:17:00.190Z,38.33
2023-03-19T10:19:56.842Z,35.99
2023-03-19T10:22:33.554Z,34.60
2023-03-19T10:25:02.875Z,31.07
2023-03-19T10:27:30.392Z,33.16
2023-03-19T10:29:57.688Z,31.35
2023-03-19T10:32:41.565Z,31.84
2023-03-19T10:35:19.775Z,31.08
2023-03-19T10:37:50.134Z,30.68
2023-03-19T10:40:26.588Z,27.31
2023-03-19T10:43:06.244Z,27.23
2023-03-19T10:45:38.486Z,37.34
2023-03-19T10:48:12.222Z,32.48
2023-03-19T10:51:06.222Z,33.04
2023-03-19T10:53:37.618Z,30.20
2023-03-19T10:56:08.027Z,29.80
2023-03-19T10:58:37.064Z,33.67
2023-03-19T11:01:11.199Z,32.08
2023-03-19T11:04:00.589Z,31.37
2023-03-19T11:06:36.170Z,33.67
2023-03-19T11:09:19.837Z,36.97
2023-03-19T11:11:53.710Z,36.16
2023-03-19T11:14:26.321Z,33.42
2023-03-19T11:17:06.488Z,36.34
2023-03-19T11:19:41.442Z,37.10
2023-03-19T11:22:23.049Z,36.59
2023-03-19T11:24:56.455Z,37.08
2023-03-19T11:27:29.771Z,39.08
2023-03-19T11:29:57.731Z,40.14
2023-03-19T11:32:37.352Z,39.21
2023-03-19T11:35:16.124Z,40.65
2023-03-19T11:37:56.759Z,42.50
2023-03-19T11:40:32.018Z,42.15
2023-03-19T11:43:29.248Z,42.20
2023-03-19T11:46:02.916Z,40.38
2023-03-19T11:48:45.416Z,41.75
2023-03-19T11:51:20.699Z,39.81
2023-03-19T11:54:38.835Z,41.25
2023-03-19T11:57:24.535Z,40.86
2023-03-19T12:00:19.151Z,42.12
2023-03-19T12:03:19.123Z,42.78
2023-03-19T12:06:01.299Z,42.87
2023-03-19T12:08:34.035Z,43.72
2023-03-19T12:11:32.495Z,43.75
2023-03-19T12:14:16.373Z,43.58
2023-03-19T12:17:04.387Z,43.42
2023-03-19T12:20:14.863Z,44.16
2023-03-19T12:23:06.718Z,44.77
2023-03-19T12:25:37.262Z,44.18
2023-03-19T12:28:29.253Z,43.41
2023-03-19T12:31:42.460Z,43.78
2023-03-19T12:34:24.906Z,43.32
2023-03-19T12:37:07.957Z,44.14
2023-03-19T12:39:38.840Z,43.81
2023-03-19T12:42:13.496Z,44.16
2023-03-19T12:44:46.679Z,44.85
2023-03-19T12:47:19.533Z,44.45
2023-03-19T12:50:01.482Z,44.32
2023-03-19T12:52:49.608Z,44.41
2023-03-19T12:55:36.459Z,45.40
2023-03-19T12:58:14.417Z,44.66
2023-03-19T13:01:02.669Z,45.42
2023-03-19T13:03:39.095Z,45.10
2023-03-19T13:06:32.271Z,44.99
2023-03-19T13:08:59.804Z,45.40
2023-03-19T13:11:45.734Z,45.43
2023-03-19T13:14:22.552Z,46.24
2023-03-19T13:17:06.777Z,46.22
2023-03-19T13:19:40.797Z,46.36
2023-03-19T13:22:13.104Z,45.88
2023-03-19T13:24:44.696Z,46.05
2023-03-19T13:27:22.840Z,45.54
2023-03-19T13:30:19.415Z,46.13
2023-03-19T13:33:05.095Z,44.44
2023-03-19T13:35:38.082Z,44.99
2023-03-19T13:38:15.445Z,45.38
2023-03-19T13:40:54.476Z,45.32
2023-03-19T13:43:30.896Z,45.79
2023-03-19T13:46:04.885Z,45.29
2023-03-19T13:48:32.136Z,45.72
2023-03-19T13:51:06.438Z,45.14
2023-03-19T13:53:54.040Z,45.77
2023-03-19T13:56:29.907Z,46.30
2023-03-19T13:59:15.790Z,46.11
2023-03-19T14:01:45.066Z,45.90
2023-03-19T14:04:32.428Z,46.35
2023-03-19T14:07:17.414Z,44.58
2023-03-19T14:10:07.743Z,46.47
2023-03-19T14:12:37.946Z,46.20
2023-03-19T14:15:11.255Z,46.31
2023-03-19T14:17:53.981Z,45.55
2023-03-19T14:20:53.253Z,46.71
2023-03-19T14:23:38.391Z,46.70
2023-03-19T14:26:15.906Z,46.58
2023-03-19T14:29:02.596Z,48.03
2023-03-19T14:31:39.165Z,48.28
2023-03-19T14:34:22.098Z,48.73
2023-03-19T14:36:52.498Z,48.36
2023-03-19T14:39:29.296Z,48.07
2023-03-19T14:42:08.688Z,48.69
2023-03-19T14:44:54.934Z,49.62
2023-03-19T14:47:49.862Z,48.38
2023-03-19T14:50:29.894Z,48.11
2023-03-19T14:53:11.242Z,46.80
2023-03-19T14:55:38.871Z,48.55
2023-03-19T14:58:06.264Z,47.49
2023-03-19T15:00:55.602Z,45.51
2023-03-19T15:03:34.939Z,45.15
2023-03-19T15:06:05.587Z,46.38
2023-03-19T15:08:36.472Z,46.26
2023-03-19T15:11:33.916Z,46.42
2023-03-19T15:14:13.969Z,46.10
2023-03-19T15:16:55.144Z,46.58
2023-03-19T15:19:29.822Z,46.95
2023-03-19T15:22:14.912Z,47.00
2023-03-19T15:24:43.076Z,47.64
2023-03-19T15:27:25.921Z,48.10
2023-03-19T15:30:02.072Z,48.42
2023-03-19T15:33:08.971Z,48.98
2023-03-19T15:35:32.076Z,49.65
2023-03-19T15:38:02.888Z,50.50
2023-03-19T15:40:32.770Z,49.81
2023-03-19T15:43:02.799Z,50.45
2023-03-19T15:45:33.940Z,49.71
2023-03-19T15:48:09.526Z,50.31
2023-03-19T15:50:43.783Z,50.78
2023-03-19T15:53:17.224Z,51.32
2023-03-19T15:55:44.777Z,50.92
2023-03-19T15:58:19.122Z,50.86
2023-03-19T16:00:47.068Z,51.36
2023-03-19T16:03:20.344Z,51.41
2023-03-19T16:05:52.680Z,52.94
2023-03-19T16:08:25.459Z,53.21
2023-03-19T16:10:53.419Z,53.14
2023-03-19T16:13:27.304Z,53.88
2023-03-19T16:16:02.925Z,54.04
2023-03-19T16:18:42.064Z,54.01
2023-03-19T16:21:15.188Z,53.71
2023-03-19T16:23:46.612Z,52.87
2023-03-19T16:26:26.421Z,54.15
2023-03-19T16:29:03.214Z,55.21
2023-03-19T16:31:36.485Z,55.76
2023-03-19T16:34:04.096Z,56.01
2023-03-19T16:36:33.636Z,56.13
2023-03-19T16:39:30.672Z,57.49
2023-03-19T16:42:28.729Z,57.35
2023-03-19T16:44:56.709Z,57.49
2023-03-19T16:47:23.989Z,58.23
2023-03-19T16:49:51.705Z,57.92
2023-03-19T16:52:22.527Z,57.59
2023-03-19T16:54:51.892Z,57.74
2023-03-19T16:57:19.816Z,57.14
2023-03-19T16:59:48.234Z,56.78
2023-03-19T17:02:17.365Z,57.92
2023-03-19T17:04:46.008Z,58.58
2023-03-19T17:07:13.716Z,57.99
2023-03-19T17:09:41.236Z,58.90
2023-03-19T17:12:15.560Z,57.87
2023-03-19T17:14:43.526Z,57.45
2023-03-19T17:17:19.562Z,56.96
2023-03-19T17:19:47.371Z,56.77
2023-03-19T17:22:14.644Z,57.27
2023-03-19T17:24:42.495Z,58.28
2023-03-19T17:27:09.864Z,58.14
2023-03-19T17:29:37.377Z,57.30
2023-03-19T17:32:07.154Z,57.05
2023-03-19T17:34:36.939Z,56.63
2023-03-19T17:37:10.845Z,56.39
2023-03-19T17:39:38.512Z,56.18
2023-03-19T17:42:24.303Z,56.15
2023-03-19T17:44:52.254Z,57.45
2023-03-19T17:47:20.200Z,57.25
2023-03-19T17:49:48.063Z,58.03
2023-03-19T17:52:19.100Z,57.15
2023-03-19T17:54:46.712Z,57.91
2023-03-19T17:57:15.314Z,58.50
2023-03-19T17:59:42.934Z,58.57
2023-03-19T18:02:22.091Z,58.22
2023-03-19T18:04:52.390Z,57.46
2023-03-19T18:07:20.018Z,59.06
2023-03-19T18:09:47.544Z,59.88
2023-03-19T18:12:15.300Z,59.10
2023-03-19T18:14:42.802Z,59.22
2023-03-19T18:17:17.044Z,59.03
2023-03-19T18:19:47.477Z,58.40
2023-03-19T18:22:19.230Z,57.74
2023-03-19T18:24:46.930Z,59.12
2023-03-19T18:27:14.761Z,58.05
2023-03-19T18:29:42.359Z,57.21
2023-03-19T18:32:16.837Z,57.88
2023-03-19T18:34:44.500Z,58.53
2023-03-19T18:37:17.292Z,59.59
2023-03-19T18:39:45.076Z,59.27
2023-03-19T18:42:13.644Z,58.83
2023-03-19T18:44:41.295Z,59.99
2023-03-19T18:47:14.975Z,58.98
2023-03-19T18:49:43.580Z,62.71
2023-03-19T18:52:16.426Z,65.57
2023-03-19T18:54:46.096Z,62.43
2023-03-19T18:57:14.419Z,62.25
2023-03-19T18:59:42.419Z,63.19
2023-03-19T19:02:28.669Z,62.12
2023-03-19T19:04:56.322Z,62.37
2023-03-19T19:07:23.589Z,62.39
2023-03-19T19:09:51.221Z,61.99
2023-03-19T19:12:19.583Z,61.74
2023-03-19T19:14:47.184Z,61.44
2023-03-19T19:17:21.262Z,60.91
2023-03-19T19:19:48.804Z,60.56
2023-03-19T19:22:18.478Z,61.91
2023-03-19T19:24:46.536Z,64.04
2023-03-19T19:27:20.730Z,63.36
2023-03-19T19:29:49.373Z,63.27
2023-03-19T19:32:24.871Z,63.51
2023-03-19T19:34:53.233Z,63.11
2023-03-19T19:37:23.288Z,63.25
2023-03-19T19:39:51.768Z,62.67
2023-03-19T19:42:21.256Z,61.88
2023-03-19T19:44:55.418Z,61.34
2023-03-19T19:47:22.796Z,61.39
2023-03-19T19:49:50.583Z,61.01
2023-03-19T19:52:19.642Z,61.86
2023-03-19T19:54:47.739Z,62.34
2023-03-19T19:57:27.077Z,61.78
2023-03-19T19:59:55.684Z,61.37
2023-03-19T20:02:28.982Z,61.80
2023-03-19T20:04:57.972Z,62.33
2023-03-19T20:07:25.780Z,63.37
2023-03-19T20:09:53.386Z,64.02
2023-03-19T20:12:22.318Z,65.14
2023-03-19T20:14:51.211Z,65.49
2023-03-19T20:17:21.130Z,67.23
2023-03-19T20:19:48.900Z,68.80
2023-03-19T20:22:16.619Z,69.57
2023-03-19T20:24:45.117Z,71.02
2023-03-19T20:27:19.096Z,73.04
2023-03-19T20:29:46.941Z,75.22
2023-03-19T20:32:38.456Z,77.07
2023-03-19T20:35:16.721Z,77.00
2023-03-19T20:37:44.190Z,77.73
2023-03-19T20:40:13.236Z,79.79
2023-03-19T20:42:41.511Z,82.61
2023-03-19T20:45:16.153Z,86.69
2023-03-19T20:47:43.502Z,86.89
2023-03-19T20:50:38.256Z,86.35
2023-03-19T20:53:05.857Z,90.08
2023-03-19T20:55:36.285Z,91.25
2023-03-19T20:58:14.421Z,91.86
2023-03-19T21:00:42.244Z,93.14
2023-03-19T21:03:16.907Z,93.73
2023-03-19T21:05:45.252Z,93.42
2023-03-19T21:08:16.422Z,93.60
2023-03-19T21:10:45.085Z,98.95
2023-03-19T21:13:15.661Z,99.46
2023-03-19T21:15:44.959Z,98.90
2023-03-19T21:18:13.157Z,98.31
2023-03-19T21:20:43.001Z,98.42
2023-03-19T21:23:28.374Z,97.76
2023-03-19T21:25:56.209Z,98.37
2023-03-19T21:28:30.635Z,98.58
2023-03-19T21:30:58.437Z,97.35
2023-03-19T21:33:28.893Z,97.66
2023-03-19T21:35:57.549Z,96.51
2023-03-19T21:38:25.470Z,94.67
2023-03-19T21:40:58.074Z,90.63
2023-03-19T21:43:43.846Z,90.39
2023-03-19T21:46:24.036Z,91.20
2023-03-19T21:48:54.503Z,96.66
2023-03-19T21:51:23.667Z,98.81
2023-03-19T21:53:50.995Z,96.24
2023-03-19T21:56:33.581Z,95.97
2023-03-19T21:59:03.705Z,95.88
2023-03-19T22:01:31.381Z,95.57
2023-03-19T22:03:58.733Z,93.25
2023-03-19T22:06:26.269Z,93.55
2023-03-19T22:08:54.278Z,91.56
2023-03-19T22:11:28.701Z,93.94
2023-03-19T22:14:22.757Z,92.72
2023-03-19T22:16:54.088Z,97.24
2023-03-19T22:19:22.026Z,95.77
2023-03-19T22:21:49.721Z,94.64
2023-03-19T22:24:17.022Z,93.01
2023-03-19T22:26:46.829Z,95.48
2023-03-19T22:29:18.398Z,94.42
2023-03-19T22:31:48.146Z,94.62
2023-03-19T22:34:17.306Z,95.27
2023-03-19T22:36:45.092Z,94.97
2023-03-19T22:39:12.814Z,92.51
2023-03-19T22:41:46.203Z,91.69
2023-03-19T22:44:26.674Z,91.47
2023-03-19T22:46:56.292Z,91.38
2023-03-19T22:49:24.872Z,90.77
2023-03-19T22:51:52.586Z,90.39
2023-03-19T22:54:19.856Z,89.27
2023-03-19T22:56:47.406Z,90.10
2023-03-19T22:59:14.663Z,88.53
2023-03-19T23:01:47.424Z,88.60
2023-03-19T23:04:22.484Z,88.25
2023-03-19T23:06:51.872Z,89.20
2023-03-19T23:09:24.850Z,90.49
2023-03-19T23:11:53.769Z,92.05
2023-03-19T23:14:29.657Z,97.52
2023-03-19T23:17:06.693Z,100.00
2023-03-19T23:19:36.708Z,100.00
2023-03-19T23:22:06.742Z,100.00
2023-03-19T23:24:34.377Z,100.00
2023-03-19T23:27:03.130Z,100.00
2023-03-19T23:29:34.466Z,100.00
2023-03-19T23:32:03.447Z,100.00
2023-03-19T23:34:31.530Z,100.00
2023-03-19T23:37:00.943Z,100.00
2023-03-19T23:39:28.927Z,100.00
2023-03-19T23:41:59.145Z,100.00
2023-03-19T23:44:29.210Z,100.00
2023-03-19T23:47:01.519Z,100.00
2023-03-19T23:49:33.341Z,100.00
2023-03-19T23:52:02.393Z,100.00
2023-03-19T23:54:34.429Z,100.00
2023-03-19T23:57:06.718Z,100.00
2023-03-19T23:59:38.145Z,100.00
